Main page
METAR-TAF:

METAR-TAF

Airports :

Harrisburg International Airport

Harrisburg / Middletown, Pennsylvania, United States

latitude: 40-11-37N, longitude: 076-45-48W, elevation: 312 ft

Current weather observation

The report was made 26 minutes ago, at 17:56 UTC
Wind 24 mph from the West/Northwest with gusts up to 32 mph
Temperature 37°F
Humidity 44%
Pressure 29.74 in. Hg
Visibility: 10 miles
Scattered clouds at a height of 5500 ft

METAR: KMDT 271756Z 29021G28KT 10SM SCT055 03/M08 A2974 RMK AO2 PK WND 28034/1741 SLP073 T00281083 10044 20011 51016

Time: 13:22 (18:22 UTC)

Forecast

The report was made 44 minutes ago, at 17:38 UTC
Forecast valid from 27 at 18 UTC to 28 at 18 UTC
Wind 29 mph from the West with gusts up to 40 mph
Visibility: 6 miles
Broken clouds at a height of 5000 ft
From 28 at 0400 UTC
Wind 17 mph from the West with gusts up to 29 mph
Visibility: 6 miles
Scattered clouds at a height of 5000 ft

TAF: KMDT 271738Z 2718/2818 28025G35KT P6SM BKN050 FM280400 28015G25KT P6SM SCT050

Weather observations and forecasts of more than 4000 airports (METAR and TAF reports).

The available stations are represented by yellow and red dots on the map.

Hover mouse over dot to see the name of the station.

Then click to see weather observations and forecasts.

To change the map : click on the green buttons with a black cross to zoom in, on the green button with a dash to zoom out, or on the green arrows for adjacent maps.


METAR-TAF: